createdAt,value
2023-05-23T00:00:52.197Z,11.10
2023-05-23T00:03:23.125Z,10.98
2023-05-23T00:05:51.845Z,10.99
2023-05-23T00:08:20.967Z,10.95
2023-05-23T00:10:49.481Z,10.93
2023-05-23T00:13:19.864Z,10.87
2023-05-23T00:15:48.787Z,10.94
2023-05-23T00:18:17.960Z,10.96
2023-05-23T00:20:47.168Z,10.99
2023-05-23T00:23:19.487Z,10.96
2023-05-23T00:25:53.377Z,10.95
2023-05-23T00:28:24.355Z,10.95
2023-05-23T00:30:52.963Z,10.93
2023-05-23T00:33:22.586Z,11.06
2023-05-23T00:35:52.774Z,11.07
2023-05-23T00:38:22.104Z,11.09
2023-05-23T00:40:50.947Z,10.91
2023-05-23T00:43:20.956Z,10.99
2023-05-23T00:45:51.415Z,10.82
2023-05-23T00:48:20.568Z,10.93
2023-05-23T00:50:49.308Z,10.73
2023-05-23T00:53:18.371Z,10.49
2023-05-23T00:55:48.016Z,10.50
2023-05-23T00:58:18.073Z,10.33
2023-05-23T01:00:46.603Z,10.40
2023-05-23T01:03:18.627Z,10.27
2023-05-23T01:05:47.374Z,10.13
2023-05-23T01:08:17.073Z,10.07
2023-05-23T01:10:45.786Z,10.13
2023-05-23T01:13:23.473Z,10.21
2023-05-23T01:16:02.751Z,10.19
2023-05-23T01:18:38.479Z,10.22
2023-05-23T01:21:13.224Z,10.26
2023-05-23T01:24:06.075Z,10.06
2023-05-23T01:26:49.524Z,10.05
2023-05-23T01:29:25.808Z,10.00
2023-05-23T01:31:56.863Z,10.11
2023-05-23T01:34:25.622Z,9.99
2023-05-23T01:36:56.415Z,9.99
2023-05-23T01:39:25.419Z,9.94
2023-05-23T01:41:54.927Z,9.94
2023-05-23T01:44:25.019Z,9.92
2023-05-23T01:46:53.886Z,9.87
2023-05-23T01:49:24.286Z,9.95
2023-05-23T01:51:55.868Z,9.91
2023-05-23T01:54:24.649Z,9.95
2023-05-23T01:56:53.645Z,9.91
2023-05-23T01:59:22.693Z,9.94
2023-05-23T02:01:52.858Z,9.92
2023-05-23T02:04:23.051Z,9.86
2023-05-23T02:06:52.163Z,9.83
2023-05-23T02:09:21.440Z,9.92
2023-05-23T02:11:50.334Z,9.92
2023-05-23T02:14:19.907Z,10.06
2023-05-23T02:16:49.734Z,10.02
2023-05-23T02:19:19.744Z,9.96
2023-05-23T02:21:48.672Z,10.00
2023-05-23T02:24:17.670Z,10.02
2023-05-23T02:26:47.417Z,9.98
2023-05-23T02:29:17.749Z,9.88
2023-05-23T02:31:46.521Z,9.80
2023-05-23T02:34:15.081Z,9.83
2023-05-23T02:36:45.158Z,9.83
2023-05-23T02:39:13.667Z,9.82
2023-05-23T02:41:42.343Z,9.69
2023-05-23T02:44:10.810Z,9.63
2023-05-23T02:46:39.386Z,9.59
2023-05-23T02:49:07.953Z,9.56
2023-05-23T02:51:36.484Z,9.46
2023-05-23T02:54:06.574Z,9.54
2023-05-23T02:56:38.015Z,9.69
2023-05-23T02:59:06.750Z,9.64
2023-05-23T03:01:35.535Z,9.68
2023-05-23T03:04:04.482Z,9.79
2023-05-23T03:06:34.252Z,9.73
2023-05-23T03:09:02.965Z,9.74
2023-05-23T03:11:33.082Z,9.55
2023-05-23T03:14:01.578Z,9.51
2023-05-23T03:16:30.213Z,9.57
2023-05-23T03:18:58.919Z,9.66
2023-05-23T03:21:27.752Z,9.69
2023-05-23T03:23:56.452Z,9.69
2023-05-23T03:26:25.386Z,9.78
2023-05-23T03:28:55.368Z,9.81
2023-05-23T03:31:24.241Z,9.86
2023-05-23T03:33:53.951Z,9.74
2023-05-23T03:36:26.150Z,9.80
2023-05-23T03:41:53.469Z,9.84
2023-05-23T03:44:24.255Z,9.88
2023-05-23T03:46:53.229Z,9.88
2023-05-23T03:49:22.515Z,10.08
2023-05-23T03:51:51.557Z,10.27
2023-05-23T03:54:20.541Z,10.12
2023-05-23T03:56:49.184Z,10.12
2023-05-23T03:59:17.767Z,10.19
2023-05-23T04:01:50.226Z,10.27
2023-05-23T04:04:21.285Z,10.29
2023-05-23T04:06:51.028Z,10.28
2023-05-23T04:09:19.570Z,10.33
2023-05-23T04:11:50.550Z,10.43
2023-05-23T04:14:22.900Z,10.51
2023-05-23T04:16:54.860Z,10.70
2023-05-23T04:19:25.529Z,10.80
2023-05-23T04:21:55.216Z,10.96
2023-05-23T04:24:24.552Z,11.15
2023-05-23T04:26:56.536Z,11.30
2023-05-23T04:29:26.471Z,11.47
2023-05-23T04:31:57.782Z,11.61
2023-05-23T04:34:28.093Z,11.74
2023-05-23T04:36:57.584Z,11.87
2023-05-23T04:39:27.598Z,11.99
2023-05-23T04:42:18.957Z,12.16
2023-05-23T04:45:16.999Z,12.35
2023-05-23T04:47:58.143Z,12.49
2023-05-23T04:50:42.985Z,12.64
2023-05-23T04:53:11.585Z,12.72
2023-05-23T04:55:41.447Z,12.79
2023-05-23T04:58:15.052Z,12.90
2023-05-23T05:00:44.415Z,13.00
2023-05-23T05:03:16.354Z,13.10
2023-05-23T05:05:47.066Z,13.20
2023-05-23T05:08:20.077Z,13.33
2023-05-23T05:10:49.451Z,13.46
2023-05-23T05:13:20.646Z,13.61
2023-05-23T05:15:54.841Z,13.77
2023-05-23T05:18:30.756Z,13.95
2023-05-23T05:21:01.472Z,14.12
2023-05-23T05:23:33.440Z,14.31
2023-05-23T05:26:03.563Z,14.43
2023-05-23T05:28:32.419Z,14.57
2023-05-23T05:31:05.558Z,14.73
2023-05-23T05:33:38.630Z,14.93
2023-05-23T05:36:13.796Z,15.25
2023-05-23T05:38:43.268Z,15.27
2023-05-23T05:41:13.095Z,15.46
2023-05-23T05:43:47.520Z,15.66
2023-05-23T05:46:16.675Z,15.80
2023-05-23T05:48:47.702Z,16.07
2023-05-23T05:51:19.312Z,16.31
2023-05-23T05:53:49.849Z,16.56
2023-05-23T05:56:19.258Z,16.77
2023-05-23T05:58:48.054Z,17.05
2023-05-23T06:01:18.405Z,17.30
2023-05-23T06:03:49.008Z,17.34
2023-05-23T06:06:18.378Z,17.56
2023-05-23T06:08:47.083Z,17.79
2023-05-23T06:11:18.643Z,18.01
2023-05-23T06:13:48.403Z,18.19
2023-05-23T06:16:17.758Z,18.37
2023-05-23T06:18:49.094Z,18.61
2023-05-23T06:21:17.888Z,18.75
2023-05-23T06:23:51.227Z,18.91
2023-05-23T06:26:20.257Z,19.11
2023-05-23T06:28:49.008Z,19.21
2023-05-23T06:31:18.020Z,19.45
2023-05-23T06:33:48.399Z,19.62
2023-05-23T06:36:17.178Z,19.86
2023-05-23T06:38:45.812Z,20.05
2023-05-23T06:41:14.419Z,20.25
2023-05-23T06:43:43.256Z,20.43
2023-05-23T06:46:17.255Z,20.62
2023-05-23T06:48:46.431Z,20.72
2023-05-23T06:51:17.693Z,20.73
2023-05-23T06:53:47.097Z,21.00
2023-05-23T06:56:17.698Z,21.21
2023-05-23T06:58:58.863Z,21.43
2023-05-23T07:01:29.021Z,21.54
2023-05-23T07:03:58.000Z,21.82
2023-05-23T07:06:28.907Z,21.98
2023-05-23T07:08:59.701Z,22.09
2023-05-23T07:11:29.337Z,22.23
2023-05-23T07:14:01.527Z,22.36
2023-05-23T07:16:50.914Z,22.64
2023-05-23T07:19:20.100Z,22.75
2023-05-23T07:21:53.619Z,22.94
2023-05-23T07:24:24.512Z,23.12
2023-05-23T07:26:57.118Z,23.34
2023-05-23T07:29:28.434Z,23.41
2023-05-23T07:31:59.175Z,23.50
2023-05-23T07:34:30.895Z,23.59
2023-05-23T07:37:04.274Z,23.72
2023-05-23T07:39:40.658Z,23.77
2023-05-23T07:42:09.913Z,23.83
2023-05-23T07:44:39.913Z,24.01
2023-05-23T07:47:08.962Z,24.20
2023-05-23T07:49:38.033Z,24.41
2023-05-23T07:52:08.739Z,24.60
2023-05-23T07:54:38.289Z,24.61
2023-05-23T07:57:09.229Z,24.72
2023-05-23T07:59:38.429Z,24.87
2023-05-23T08:02:08.421Z,25.04
2023-05-23T08:04:37.499Z,25.19
2023-05-23T08:07:08.707Z,25.22
2023-05-23T08:09:57.503Z,25.23
2023-05-23T08:12:26.395Z,25.37
2023-05-23T08:15:04.237Z,25.52
2023-05-23T08:17:45.494Z,25.50
2023-05-23T08:20:14.932Z,25.63
2023-05-23T08:22:47.673Z,25.76
2023-05-23T08:25:17.701Z,25.91
2023-05-23T08:27:47.183Z,26.05
2023-05-23T08:30:41.302Z,26.12
2023-05-23T08:33:10.493Z,26.05
2023-05-23T08:35:41.800Z,26.04
2023-05-23T08:38:13.927Z,26.11
2023-05-23T08:40:57.815Z,26.14
2023-05-23T08:43:30.552Z,26.38
2023-05-23T08:46:00.147Z,26.40
2023-05-23T08:48:32.644Z,26.57
2023-05-23T08:51:04.514Z,26.75
2023-05-23T08:53:35.116Z,26.90
2023-05-23T08:56:08.567Z,26.76
2023-05-23T08:58:45.700Z,26.61
2023-05-23T09:01:18.253Z,26.78
2023-05-23T09:03:46.978Z,26.94
2023-05-23T09:06:40.132Z,27.18
2023-05-23T09:09:11.965Z,27.41
2023-05-23T09:11:41.701Z,27.53
2023-05-23T09:14:14.864Z,27.50
2023-05-23T09:16:48.962Z,27.52
2023-05-23T09:19:20.675Z,27.55
2023-05-23T09:21:58.880Z,27.75
2023-05-23T09:24:37.332Z,27.83
2023-05-23T09:27:10.081Z,28.00
2023-05-23T09:29:41.062Z,28.06
2023-05-23T09:32:14.090Z,28.12
2023-05-23T09:34:43.772Z,27.83
2023-05-23T09:37:19.777Z,27.98
2023-05-23T09:39:50.642Z,28.19
2023-05-23T09:42:23.745Z,28.42
2023-05-23T09:44:52.500Z,28.60
2023-05-23T09:47:21.318Z,28.59
2023-05-23T09:49:51.680Z,28.62
2023-05-23T09:52:22.681Z,28.72
2023-05-23T09:54:53.306Z,28.88
2023-05-23T09:57:24.862Z,28.91
2023-05-23T09:59:57.892Z,28.75
2023-05-23T10:02:55.596Z,28.92
2023-05-23T10:05:36.022Z,29.09
2023-05-23T10:08:14.274Z,29.11
2023-05-23T10:11:30.648Z,29.16
2023-05-23T10:14:03.539Z,29.01
2023-05-23T10:16:44.886Z,29.11
2023-05-23T10:19:29.227Z,29.40
2023-05-23T10:22:01.330Z,29.64
2023-05-23T10:24:34.601Z,29.82
2023-05-23T10:27:05.248Z,29.87
2023-05-23T10:29:43.643Z,29.83
2023-05-23T10:32:16.897Z,29.60
2023-05-23T10:34:58.740Z,29.71
2023-05-23T10:37:41.050Z,29.91
2023-05-23T10:40:32.047Z,29.94
2023-05-23T10:43:16.711Z,30.08
2023-05-23T10:45:50.946Z,30.03
2023-05-23T10:48:35.828Z,29.79
2023-05-23T10:51:07.440Z,29.86
2023-05-23T10:53:42.932Z,29.98
2023-05-23T10:56:14.301Z,29.77
2023-05-23T10:58:43.612Z,29.19
2023-05-23T11:01:26.446Z,29.05
2023-05-23T11:03:57.181Z,29.39
2023-05-23T11:06:39.783Z,29.61
2023-05-23T11:09:12.907Z,29.41
2023-05-23T11:12:12.869Z,28.84
2023-05-23T11:14:58.813Z,28.56
2023-05-23T11:17:39.485Z,28.76
2023-05-23T11:20:15.620Z,29.02
2023-05-23T11:23:00.428Z,29.15
2023-05-23T11:25:48.312Z,29.48
2023-05-23T11:28:34.950Z,29.65
2023-05-23T11:31:14.404Z,29.47
2023-05-23T11:33:45.854Z,29.67
2023-05-23T11:36:15.770Z,29.74
2023-05-23T11:38:49.618Z,29.86
2023-05-23T11:41:26.829Z,29.94
2023-05-23T11:44:00.115Z,30.26
2023-05-23T11:46:37.064Z,30.28
2023-05-23T11:49:16.779Z,30.14
2023-05-23T11:51:55.791Z,29.82
2023-05-23T11:54:34.761Z,29.16
2023-05-23T11:57:10.841Z,28.62
2023-05-23T11:59:49.437Z,28.17
2023-05-23T12:02:21.264Z,27.87
2023-05-23T12:04:53.188Z,27.99
2023-05-23T12:07:25.734Z,28.45
2023-05-23T12:10:01.606Z,28.67
2023-05-23T12:12:31.951Z,28.72
2023-05-23T12:15:06.043Z,28.43
2023-05-23T12:17:35.630Z,28.53
2023-05-23T12:20:18.014Z,28.82
2023-05-23T12:22:50.584Z,28.85
2023-05-23T12:25:23.639Z,28.75
2023-05-23T12:27:53.724Z,28.74
2023-05-23T12:30:28.846Z,28.35
2023-05-23T12:33:10.713Z,27.92
2023-05-23T12:35:45.780Z,27.78
2023-05-23T12:38:18.711Z,27.94
2023-05-23T12:40:48.679Z,28.00
2023-05-23T12:43:24.749Z,28.11
2023-05-23T12:45:54.278Z,28.16
2023-05-23T12:48:24.288Z,28.31
2023-05-23T12:50:56.237Z,28.58
2023-05-23T12:53:26.635Z,28.82
2023-05-23T12:55:57.301Z,29.03
2023-05-23T12:58:30.962Z,29.20
2023-05-23T13:01:01.533Z,29.26
2023-05-23T13:03:33.517Z,29.39
2023-05-23T13:06:12.008Z,29.46
2023-05-23T13:08:48.125Z,29.40
2023-05-23T13:11:26.188Z,29.32
2023-05-23T13:13:56.239Z,29.18
2023-05-23T13:16:30.784Z,29.11
2023-05-23T13:19:00.637Z,29.10
2023-05-23T13:21:52.211Z,29.27
2023-05-23T13:24:26.532Z,29.40
2023-05-23T13:27:13.562Z,29.13
2023-05-23T13:30:01.057Z,28.72
2023-05-23T13:32:33.728Z,28.74
2023-05-23T13:35:04.352Z,28.83
2023-05-23T13:37:52.083Z,28.62
2023-05-23T13:40:33.816Z,28.46
2023-05-23T13:43:19.675Z,28.44
2023-05-23T13:45:56.716Z,28.33
2023-05-23T13:48:38.935Z,28.62
2023-05-23T13:51:28.023Z,28.65
2023-05-23T13:54:24.156Z,28.88
2023-05-23T13:57:14.153Z,28.88
2023-05-23T13:59:44.018Z,28.81
2023-05-23T14:02:17.873Z,28.66
2023-05-23T14:04:47.270Z,28.75
2023-05-23T14:07:22.568Z,28.65
2023-05-23T14:13:18.586Z,28.26
2023-05-23T14:15:48.146Z,28.11
2023-05-23T14:18:20.836Z,27.85
2023-05-23T14:20:55.747Z,27.61
2023-05-23T14:23:28.998Z,27.40
2023-05-23T14:26:09.394Z,27.21
2023-05-23T14:28:54.056Z,26.98
2023-05-23T14:31:25.020Z,26.64
2023-05-23T14:34:04.072Z,26.56
2023-05-23T14:36:49.009Z,26.39
2023-05-23T14:39:38.090Z,26.17
2023-05-23T14:42:39.066Z,26.08
2023-05-23T14:45:23.673Z,26.15
2023-05-23T14:48:05.080Z,26.39
2023-05-23T14:50:48.963Z,26.49
2023-05-23T14:53:48.668Z,26.38
2023-05-23T14:56:18.682Z,26.52
2023-05-23T14:59:01.663Z,26.51
2023-05-23T15:01:58.016Z,26.41
2023-05-23T15:04:47.458Z,26.26
2023-05-23T15:07:49.197Z,26.03
2023-05-23T15:10:25.731Z,25.87
2023-05-23T15:13:01.009Z,25.81
2023-05-23T15:15:47.034Z,25.72
2023-05-23T15:18:39.516Z,25.73
2023-05-23T15:21:33.525Z,25.63
2023-05-23T15:24:16.737Z,25.73
2023-05-23T15:27:15.737Z,25.73
2023-05-23T15:29:58.154Z,25.53
2023-05-23T15:32:39.047Z,25.73
2023-05-23T15:35:30.217Z,25.60
2023-05-23T15:38:08.063Z,25.54
2023-05-23T15:40:54.918Z,25.45
2023-05-23T15:43:31.984Z,25.44
2023-05-23T15:46:04.680Z,25.27
2023-05-23T15:48:41.521Z,25.12
2023-05-23T15:51:16.984Z,24.93
2023-05-23T15:56:33.676Z,24.68
2023-05-23T15:59:06.198Z,24.60
2023-05-23T16:01:41.172Z,24.52
2023-05-23T16:04:23.031Z,24.38
2023-05-23T16:07:20.189Z,24.24
2023-05-23T16:10:02.241Z,24.24
2023-05-23T16:12:32.999Z,24.12
2023-05-23T16:15:05.573Z,23.93
2023-05-23T16:17:57.982Z,23.80
2023-05-23T16:20:38.651Z,23.72
2023-05-23T16:23:30.126Z,23.70
2023-05-23T16:26:13.936Z,23.58
2023-05-23T16:29:18.290Z,23.41
2023-05-23T16:32:09.849Z,23.40
2023-05-23T16:35:06.137Z,23.47
2023-05-23T16:37:49.769Z,23.48
2023-05-23T16:40:25.996Z,23.45
2023-05-23T16:43:05.640Z,23.31
2023-05-23T16:45:50.891Z,23.34
2023-05-23T16:48:41.917Z,23.29
2023-05-23T16:51:22.945Z,23.24
2023-05-23T16:53:56.913Z,23.16
2023-05-23T16:56:43.109Z,23.10
2023-05-23T16:59:55.812Z,23.05
2023-05-23T17:02:41.421Z,22.91
2023-05-23T17:05:14.648Z,23.03
2023-05-23T17:11:02.052Z,23.09
2023-05-23T17:13:31.840Z,23.15
2023-05-23T17:16:04.002Z,23.32
2023-05-23T17:18:37.024Z,23.36
2023-05-23T17:21:06.925Z,23.25
2023-05-23T17:23:40.057Z,23.16
2023-05-23T17:26:13.601Z,23.27
2023-05-23T17:28:43.618Z,23.15
2023-05-23T17:31:18.128Z,23.04
2023-05-23T17:33:54.867Z,22.98
2023-05-23T17:36:29.840Z,22.86
2023-05-23T17:39:04.828Z,22.76
2023-05-23T17:41:49.850Z,22.61
2023-05-23T17:44:28.338Z,22.47
2023-05-23T17:46:58.076Z,22.36
2023-05-23T17:49:33.313Z,22.19
2023-05-23T17:52:12.245Z,22.11
2023-05-23T17:54:44.407Z,21.98
2023-05-23T17:57:16.661Z,21.85
2023-05-23T17:59:46.563Z,21.76
2023-05-23T18:02:16.751Z,21.70
2023-05-23T18:04:47.040Z,21.65
2023-05-23T18:07:21.789Z,21.62
2023-05-23T18:10:00.100Z,21.53
2023-05-23T18:12:33.708Z,21.45
2023-05-23T18:15:02.856Z,21.39
2023-05-23T18:17:31.393Z,21.33
2023-05-23T18:20:15.033Z,21.30
2023-05-23T18:22:55.419Z,21.22
2023-05-23T18:25:27.918Z,21.24
2023-05-23T18:28:00.151Z,21.19
2023-05-23T18:30:29.697Z,21.14
2023-05-23T18:32:59.594Z,21.09
2023-05-23T18:35:34.672Z,20.96
2023-05-23T18:38:04.090Z,20.94
2023-05-23T18:40:33.669Z,20.89
2023-05-23T18:43:06.579Z,20.84
2023-05-23T18:45:51.009Z,20.84
2023-05-23T18:48:24.802Z,20.84
2023-05-23T18:51:17.358Z,20.67
2023-05-23T18:53:48.959Z,20.78
2023-05-23T18:56:19.041Z,20.73
2023-05-23T18:58:57.363Z,20.66
2023-05-23T19:01:26.825Z,20.63
2023-05-23T19:03:57.671Z,20.54
2023-05-23T19:06:29.454Z,20.47
2023-05-23T19:09:00.395Z,20.40
2023-05-23T19:11:29.938Z,20.34
2023-05-23T19:14:03.976Z,20.29
2023-05-23T19:16:36.846Z,20.29
2023-05-23T19:19:06.276Z,20.34
2023-05-23T19:21:36.155Z,20.27
2023-05-23T19:24:10.628Z,20.30
2023-05-23T19:26:43.038Z,20.27
2023-05-23T19:29:22.863Z,20.25
2023-05-23T19:31:58.489Z,20.23
2023-05-23T19:34:29.097Z,20.23
2023-05-23T19:36:58.656Z,20.21
2023-05-23T19:39:29.196Z,20.15
2023-05-23T19:42:02.352Z,20.12
2023-05-23T19:44:33.698Z,20.09
2023-05-23T19:47:02.925Z,20.03
2023-05-23T19:49:33.053Z,19.95
2023-05-23T19:52:04.001Z,19.91
2023-05-23T19:54:34.190Z,19.86
2023-05-23T19:57:05.706Z,19.81
2023-05-23T19:59:40.980Z,19.87
2023-05-23T20:02:15.588Z,19.83
2023-05-23T20:04:47.780Z,19.81
2023-05-23T20:07:17.007Z,19.81
2023-05-23T20:09:47.390Z,19.80
2023-05-23T20:12:17.995Z,19.81
2023-05-23T20:14:49.065Z,19.79
2023-05-23T20:17:21.207Z,19.79
2023-05-23T20:20:03.860Z,19.85
2023-05-23T20:22:35.595Z,19.80
2023-05-23T20:25:08.748Z,19.68
2023-05-23T20:27:37.907Z,19.63
2023-05-23T20:30:16.414Z,19.58
2023-05-23T20:32:51.780Z,19.54
2023-05-23T20:35:25.126Z,19.54
2023-05-23T20:37:54.009Z,19.53
2023-05-23T20:40:26.909Z,19.48
2023-05-23T20:42:56.165Z,19.50
2023-05-23T20:45:33.365Z,19.48
2023-05-23T20:48:06.383Z,19.42
2023-05-23T20:50:37.853Z,19.34
2023-05-23T20:53:08.966Z,19.28
2023-05-23T20:55:38.302Z,19.19
2023-05-23T20:58:07.446Z,18.96
2023-05-23T21:00:39.098Z,18.88
2023-05-23T21:03:08.861Z,18.85
2023-05-23T21:05:45.025Z,18.85
2023-05-23T21:08:18.222Z,18.81
2023-05-23T21:10:55.194Z,18.76
2023-05-23T21:13:28.573Z,18.71
2023-05-23T21:16:02.122Z,18.68
2023-05-23T21:18:35.102Z,18.62
2023-05-23T21:21:04.364Z,18.60
2023-05-23T21:23:38.299Z,18.59
2023-05-23T21:26:07.801Z,18.65
2023-05-23T21:28:36.713Z,18.65
2023-05-23T21:31:08.253Z,18.70
2023-05-23T21:33:37.372Z,18.77
2023-05-23T21:36:06.746Z,18.77
2023-05-23T21:38:40.688Z,18.73
2023-05-23T21:41:09.508Z,18.73
2023-05-23T21:43:38.428Z,18.71
2023-05-23T21:46:08.866Z,18.69
2023-05-23T21:48:38.383Z,18.68
2023-05-23T21:51:07.618Z,18.68
2023-05-23T21:53:36.517Z,18.66
2023-05-23T21:56:05.522Z,18.65
2023-05-23T21:58:34.729Z,18.66
2023-05-23T22:01:05.513Z,18.64
2023-05-23T22:03:36.305Z,18.64
2023-05-23T22:06:05.506Z,18.63
2023-05-23T22:08:34.702Z,18.64
2023-05-23T22:11:04.706Z,18.65
2023-05-23T22:13:33.733Z,18.65
2023-05-23T22:16:02.955Z,18.65
2023-05-23T22:18:50.947Z,18.62
2023-05-23T22:21:20.636Z,18.57
2023-05-23T22:23:49.889Z,18.58
2023-05-23T22:26:18.768Z,18.59
2023-05-23T22:28:47.935Z,18.59
2023-05-23T22:31:17.179Z,18.54
2023-05-23T22:33:48.038Z,18.53
2023-05-23T22:36:17.954Z,18.54
2023-05-23T22:38:46.934Z,18.56
2023-05-23T22:41:16.272Z,18.57
2023-05-23T22:43:45.096Z,18.57
2023-05-23T22:46:14.045Z,18.56
2023-05-23T22:48:43.121Z,18.56
2023-05-23T22:51:14.845Z,18.55
2023-05-23T22:53:44.202Z,18.54
2023-05-23T22:56:18.808Z,18.52
2023-05-23T22:58:47.618Z,18.54
2023-05-23T23:01:16.305Z,18.51
2023-05-23T23:03:45.338Z,18.53
2023-05-23T23:06:15.755Z,18.50
2023-05-23T23:08:44.542Z,18.47
2023-05-23T23:11:16.985Z,18.46
2023-05-23T23:13:46.187Z,18.43
2023-05-23T23:16:15.262Z,18.39
2023-05-23T23:18:43.886Z,18.39
2023-05-23T23:21:12.649Z,18.40
2023-05-23T23:23:43.831Z,18.35
2023-05-23T23:26:12.945Z,18.29
2023-05-23T23:28:42.241Z,18.24
2023-05-23T23:31:10.910Z,18.18
2023-05-23T23:33:39.832Z,18.16
2023-05-23T23:36:09.353Z,18.17
2023-05-23T23:49:06.965Z,18.00
2023-05-23T23:51:36.779Z,18.03
2023-05-23T23:54:05.542Z,17.99
2023-05-23T23:56:36.991Z,17.98
2023-05-23T23:59:06.368Z,17.93
